sensor_id;sensor_type;location;lat;lon;timestamp;noise_LAeq;noise_LA_min;noise_LA_max;noise_LA01;noise_LA95
51665;Laerm;37751;52.408;12.536;2024-01-10T00:02:52;45.05;26.77;65.23;;
51665;Laerm;37751;52.408;12.536;2024-01-10T00:05:26;48.59;27.31;62.53;;
51665;Laerm;37751;52.408;12.536;2024-01-10T00:08:21;42.48;27.91;63.73;;
51665;Laerm;37751;52.408;12.536;2024-01-10T00:10:58;44.57;27.94;63.00;;
51665;Laerm;37751;52.408;12.536;2024-01-10T00:13:59;48.62;28.68;65.44;;
51665;Laerm;37751;52.408;12.536;2024-01-10T00:16:34;46.82;29.43;61.83;;
51665;Laerm;37751;52.408;12.536;2024-01-10T00:19:25;42.58;27.86;61.54;;
51665;Laerm;37751;52.408;12.536;2024-01-10T00:21:57;29.76;27.66;44.83;;
51665;Laerm;37751;52.408;12.536;2024-01-10T00:24:28;43.69;27.93;61.53;;
51665;Laerm;37751;52.408;12.536;2024-01-10T00:27:05;45.01;27.86;64.05;;
51665;Laerm;37751;52.408;12.536;2024-01-10T00:29:43;50.73;27.58;74.91;;
51665;Laerm;37751;52.408;12.536;2024-01-10T00:32:15;51.74;27.75;65.72;;
51665;Laerm;37751;52.408;12.536;2024-01-10T00:34:51;48.81;28.28;66.40;;
51665;Laerm;37751;52.408;12.536;2024-01-10T00:37:27;49.00;28.28;66.95;;
51665;Laerm;37751;52.408;12.536;2024-01-10T00:40:09;39.88;28.25;58.88;;
51665;Laerm;37751;52.408;12.536;2024-01-10T00:42:47;47.79;27.90;64.75;;
51665;Laerm;37751;52.408;12.536;2024-01-10T00:45:21;46.47;29.52;64.52;;
51665;Laerm;37751;52.408;12.536;2024-01-10T00:48:23;48.07;28.58;66.22;;
51665;Laerm;37751;52.408;12.536;2024-01-10T00:51:34;41.53;27.50;61.86;;
51665;Laerm;37751;52.408;12.536;2024-01-10T00:54:13;47.84;29.62;62.96;;
51665;Laerm;37751;52.408;12.536;2024-01-10T00:57:25;50.54;27.93;63.51;;
51665;Laerm;37751;52.408;12.536;2024-01-10T00:59:59;45.37;28.06;62.25;;
51665;Laerm;37751;52.408;12.536;2024-01-10T01:02:37;48.76;28.29;66.94;;
51665;Laerm;37751;52.408;12.536;2024-01-10T01:05:09;45.98;28.40;63.36;;
51665;Laerm;37751;52.408;12.536;2024-01-10T01:07:46;46.67;27.28;65.09;;
51665;Laerm;37751;52.408;12.536;2024-01-10T01:10:17;47.01;29.85;63.91;;
51665;Laerm;37751;52.408;12.536;2024-01-10T01:12:49;48.12;28.54;67.05;;
51665;Laerm;37751;52.408;12.536;2024-01-10T01:15:34;48.26;32.19;62.37;;
51665;Laerm;37751;52.408;12.536;2024-01-10T01:18:08;41.92;27.46;60.54;;
51665;Laerm;37751;52.408;12.536;2024-01-10T01:20:46;44.40;27.62;63.64;;
51665;Laerm;37751;52.408;12.536;2024-01-10T01:23:29;45.11;27.93;60.24;;
51665;Laerm;37751;52.408;12.536;2024-01-10T01:26:18;50.24;28.62;65.77;;
51665;Laerm;37751;52.408;12.536;2024-01-10T01:29:09;46.43;28.33;67.85;;
51665;Laerm;37751;52.408;12.536;2024-01-10T01:31:45;48.92;29.42;68.50;;
51665;Laerm;37751;52.408;12.536;2024-01-10T01:34:47;54.18;33.27;67.16;;
51665;Laerm;37751;52.408;12.536;2024-01-10T01:37:21;46.50;29.51;64.13;;
51665;Laerm;37751;52.408;12.536;2024-01-10T01:40:03;47.42;28.63;64.47;;
51665;Laerm;37751;52.408;12.536;2024-01-10T01:42:37;45.38;28.67;55.54;;
51665;Laerm;37751;52.408;12.536;2024-01-10T01:45:14;48.52;30.72;67.34;;
51665;Laerm;37751;52.408;12.536;2024-01-10T01:47:51;48.65;28.73;66.52;;
51665;Laerm;37751;52.408;12.536;2024-01-10T01:50:28;47.39;28.63;67.27;;
51665;Laerm;37751;52.408;12.536;2024-01-10T01:53:12;53.00;33.12;67.53;;
51665;Laerm;37751;52.408;12.536;2024-01-10T01:55:45;48.94;29.67;62.41;;
51665;Laerm;37751;52.408;12.536;2024-01-10T01:58:28;54.66;27.65;73.02;;
51665;Laerm;37751;52.408;12.536;2024-01-10T02:01:14;49.32;27.76;68.28;;
51665;Laerm;37751;52.408;12.536;2024-01-10T02:03:51;43.89;29.23;63.26;;
51665;Laerm;37751;52.408;12.536;2024-01-10T02:06:28;44.48;29.50;60.80;;
51665;Laerm;37751;52.408;12.536;2024-01-10T02:09:11;48.26;28.66;64.60;;
51665;Laerm;37751;52.408;12.536;2024-01-10T02:11:48;44.95;28.62;60.79;;
51665;Laerm;37751;52.408;12.536;2024-01-10T02:14:43;51.02;31.79;67.34;;
51665;Laerm;37751;52.408;12.536;2024-01-10T02:17:32;46.53;28.15;67.02;;
51665;Laerm;37751;52.408;12.536;2024-01-10T02:20:29;48.28;32.67;62.72;;
51665;Laerm;37751;52.408;12.536;2024-01-10T02:23:21;45.36;27.90;66.68;;
51665;Laerm;37751;52.408;12.536;2024-01-10T02:26:07;40.66;27.46;61.21;;
51665;Laerm;37751;52.408;12.536;2024-01-10T02:29:02;30.87;26.84;41.09;;
51665;Laerm;37751;52.408;12.536;2024-01-10T02:31:39;32.61;27.48;46.70;;
51665;Laerm;37751;52.408;12.536;2024-01-10T02:34:51;56.17;28.39;72.11;;
51665;Laerm;37751;52.408;12.536;2024-01-10T02:37:38;50.77;27.98;66.33;;
51665;Laerm;37751;52.408;12.536;2024-01-10T02:40:50;49.53;28.76;66.86;;
51665;Laerm;37751;52.408;12.536;2024-01-10T02:43:47;48.81;32.99;62.10;;
51665;Laerm;37751;52.408;12.536;2024-01-10T02:46:41;52.70;36.00;67.75;;
51665;Laerm;37751;52.408;12.536;2024-01-10T02:49:53;52.12;28.81;65.12;;
51665;Laerm;37751;52.408;12.536;2024-01-10T02:52:27;49.95;27.79;63.55;;
51665;Laerm;37751;52.408;12.536;2024-01-10T02:55:07;48.77;31.11;64.61;;
51665;Laerm;37751;52.408;12.536;2024-01-10T02:58:19;51.24;31.97;66.65;;
51665;Laerm;37751;52.408;12.536;2024-01-10T03:01:36;50.25;32.11;65.61;;
51665;Laerm;37751;52.408;12.536;2024-01-10T03:04:50;51.44;33.96;66.04;;
51665;Laerm;37751;52.408;12.536;2024-01-10T03:08:02;51.55;33.13;63.41;;
51665;Laerm;37751;52.408;12.536;2024-01-10T03:10:34;52.52;35.95;67.37;;
51665;Laerm;37751;52.408;12.536;2024-01-10T03:13:47;54.45;33.74;67.64;;
51665;Laerm;37751;52.408;12.536;2024-01-10T03:17:01;53.20;37.40;65.44;;
51665;Laerm;37751;52.408;12.536;2024-01-10T03:19:56;52.14;31.92;64.48;;
51665;Laerm;37751;52.408;12.536;2024-01-10T03:22:48;52.03;33.44;67.35;;
51665;Laerm;37751;52.408;12.536;2024-01-10T03:26:00;53.10;38.70;64.38;;
51665;Laerm;37751;52.408;12.536;2024-01-10T03:28:54;55.24;37.71;67.51;;
51665;Laerm;37751;52.408;12.536;2024-01-10T03:32:09;52.85;32.93;66.56;;
51665;Laerm;37751;52.408;12.536;2024-01-10T03:35:21;56.41;39.15;69.44;;
51665;Laerm;37751;52.408;12.536;2024-01-10T03:38:13;52.91;40.54;65.04;;
51665;Laerm;37751;52.408;12.536;2024-01-10T03:40:48;55.99;42.54;66.02;;
51665;Laerm;37751;52.408;12.536;2024-01-10T03:43:27;56.06;43.50;66.53;;
51665;Laerm;37751;52.408;12.536;2024-01-10T03:46:21;58.65;49.98;69.58;;
51665;Laerm;37751;52.408;12.536;2024-01-10T03:49:36;58.74;48.59;68.72;;
51665;Laerm;37751;52.408;12.536;2024-01-10T03:52:47;58.33;45.96;69.53;;
51665;Laerm;37751;52.408;12.536;2024-01-10T03:55:42;53.72;41.30;74.32;;
51665;Laerm;37751;52.408;12.536;2024-01-10T03:58:54;58.37;46.16;68.38;;
51665;Laerm;37751;52.408;12.536;2024-01-10T04:02:10;56.91;44.79;68.12;;
51665;Laerm;37751;52.408;12.536;2024-01-10T04:05:25;58.96;43.87;75.68;;
51665;Laerm;37751;52.408;12.536;2024-01-10T04:08:27;54.47;43.17;65.11;;
51665;Laerm;37751;52.408;12.536;2024-01-10T04:11:01;57.15;42.74;67.35;;
51665;Laerm;37751;52.408;12.536;2024-01-10T04:13:56;54.75;39.77;65.39;;
51665;Laerm;37751;52.408;12.536;2024-01-10T04:16:40;57.67;42.39;67.60;;
51665;Laerm;37751;52.408;12.536;2024-01-10T04:19:28;57.31;41.34;70.14;;
51665;Laerm;37751;52.408;12.536;2024-01-10T04:22:12;57.64;43.77;67.04;;
51665;Laerm;37751;52.408;12.536;2024-01-10T04:24:53;58.04;44.40;68.86;;
51665;Laerm;37751;52.408;12.536;2024-01-10T04:27:45;57.61;40.17;68.16;;
51665;Laerm;37751;52.408;12.536;2024-01-10T04:30:44;63.25;43.33;84.61;;
51665;Laerm;37751;52.408;12.536;2024-01-10T04:33:35;56.96;41.87;67.72;;
51665;Laerm;37751;52.408;12.536;2024-01-10T04:36:23;59.42;42.79;68.57;;
51665;Laerm;37751;52.408;12.536;2024-01-10T04:39:10;60.86;47.48;75.41;;
51665;Laerm;37751;52.408;12.536;2024-01-10T04:42:07;59.70;46.74;76.33;;
51665;Laerm;37751;52.408;12.536;2024-01-10T04:45:02;58.93;46.47;66.87;;
51665;Laerm;37751;52.408;12.536;2024-01-10T04:47:59;59.17;42.49;68.42;;
51665;Laerm;37751;52.408;12.536;2024-01-10T04:51:11;59.71;45.40;77.18;;
51665;Laerm;37751;52.408;12.536;2024-01-10T04:53:43;60.69;45.16;73.23;;
51665;Laerm;37751;52.408;12.536;2024-01-10T04:56:31;58.76;41.54;69.09;;
51665;Laerm;37751;52.408;12.536;2024-01-10T04:59:10;60.82;44.52;74.13;;
51665;Laerm;37751;52.408;12.536;2024-01-10T05:02:13;58.08;40.54;67.98;;
51665;Laerm;37751;52.408;12.536;2024-01-10T05:04:47;57.54;44.47;67.06;;
51665;Laerm;37751;52.408;12.536;2024-01-10T05:07:49;60.44;44.87;69.07;;
51665;Laerm;37751;52.408;12.536;2024-01-10T05:10:44;58.33;43.86;71.23;;
51665;Laerm;37751;52.408;12.536;2024-01-10T05:13:38;58.56;43.40;68.76;;
51665;Laerm;37751;52.408;12.536;2024-01-10T05:16:33;57.74;41.33;66.69;;
51665;Laerm;37751;52.408;12.536;2024-01-10T05:19:34;60.12;46.64;69.60;;
51665;Laerm;37751;52.408;12.536;2024-01-10T05:22:20;60.46;50.53;71.03;;
51665;Laerm;37751;52.408;12.536;2024-01-10T05:25:07;60.31;51.36;71.11;;
51665;Laerm;37751;52.408;12.536;2024-01-10T05:27:46;59.96;49.32;68.54;;
51665;Laerm;37751;52.408;12.536;2024-01-10T05:30:31;58.70;44.86;68.72;;
51665;Laerm;37751;52.408;12.536;2024-01-10T05:33:36;59.56;44.54;68.25;;
51665;Laerm;37751;52.408;12.536;2024-01-10T05:36:39;59.53;45.22;69.93;;
51665;Laerm;37751;52.408;12.536;2024-01-10T05:39:50;59.44;47.13;67.42;;
51665;Laerm;37751;52.408;12.536;2024-01-10T05:42:44;59.55;48.74;67.24;;
51665;Laerm;37751;52.408;12.536;2024-01-10T05:46:00;60.35;45.33;68.02;;
51665;Laerm;37751;52.408;12.536;2024-01-10T05:49:13;58.60;41.74;66.58;;
51665;Laerm;37751;52.408;12.536;2024-01-10T05:52:25;59.44;45.33;75.43;;
51665;Laerm;37751;52.408;12.536;2024-01-10T05:55:37;59.60;44.49;71.64;;
51665;Laerm;37751;52.408;12.536;2024-01-10T05:58:23;59.61;45.75;67.32;;
51665;Laerm;37751;52.408;12.536;2024-01-10T06:01:46;61.83;43.04;78.68;;
51665;Laerm;37751;52.408;12.536;2024-01-10T06:04:46;59.89;47.72;68.65;;
51665;Laerm;37751;52.408;12.536;2024-01-10T06:07:58;59.82;45.86;71.71;;
51665;Laerm;37751;52.408;12.536;2024-01-10T06:13:47;60.88;48.35;70.65;;
51665;Laerm;37751;52.408;12.536;2024-01-10T06:16:48;61.93;45.70;72.83;;
51665;Laerm;37751;52.408;12.536;2024-01-10T06:20:04;61.14;50.03;70.51;;
51665;Laerm;37751;52.408;12.536;2024-01-10T06:22:59;61.15;48.77;71.77;;
51665;Laerm;37751;52.408;12.536;2024-01-10T06:26:11;61.86;46.40;78.69;;
51665;Laerm;37751;52.408;12.536;2024-01-10T06:29:26;59.26;46.19;66.33;;
51665;Laerm;37751;52.408;12.536;2024-01-10T06:32:38;59.93;45.75;66.83;;
51665;Laerm;37751;52.408;12.536;2024-01-10T06:35:32;60.81;45.42;68.33;;
51665;Laerm;37751;52.408;12.536;2024-01-10T06:38:22;60.46;51.88;67.07;;
51665;Laerm;37751;52.408;12.536;2024-01-10T06:41:14;62.83;49.63;74.40;;
51665;Laerm;37751;52.408;12.536;2024-01-10T06:44:08;63.98;45.14;82.94;;
51665;Laerm;37751;52.408;12.536;2024-01-10T06:46:48;71.69;50.90;91.75;;
51665;Laerm;37751;52.408;12.536;2024-01-10T06:50:00;59.90;43.37;67.03;;
51665;Laerm;37751;52.408;12.536;2024-01-10T06:52:45;61.50;46.26;72.79;;
51665;Laerm;37751;52.408;12.536;2024-01-10T06:55:57;60.07;47.81;66.92;;
51665;Laerm;37751;52.408;12.536;2024-01-10T06:58:31;61.54;47.66;70.32;;
51665;Laerm;37751;52.408;12.536;2024-01-10T07:01:23;61.24;48.11;79.81;;
51665;Laerm;37751;52.408;12.536;2024-01-10T07:03:59;60.37;47.56;68.55;;
51665;Laerm;37751;52.408;12.536;2024-01-10T07:06:46;59.40;47.70;67.92;;
51665;Laerm;37751;52.408;12.536;2024-01-10T07:09:18;78.62;48.63;101.24;;
51665;Laerm;37751;52.408;12.536;2024-01-10T07:11:53;59.53;45.91;67.11;;
51665;Laerm;37751;52.408;12.536;2024-01-10T07:14:26;61.51;49.42;69.37;;
51665;Laerm;37751;52.408;12.536;2024-01-10T07:17:22;59.68;48.41;69.45;;
51665;Laerm;37751;52.408;12.536;2024-01-10T07:19:56;62.22;48.84;76.42;;
51665;Laerm;37751;52.408;12.536;2024-01-10T07:22:29;62.15;48.27;75.10;;
51665;Laerm;37751;52.408;12.536;2024-01-10T07:25:01;58.61;46.41;72.26;;
51665;Laerm;37751;52.408;12.536;2024-01-10T07:27:39;59.53;43.93;67.68;;
51665;Laerm;37751;52.408;12.536;2024-01-10T07:30:11;62.17;51.43;70.47;;
51665;Laerm;37751;52.408;12.536;2024-01-10T07:32:43;57.29;44.44;65.73;;
51665;Laerm;37751;52.408;12.536;2024-01-10T07:35:21;59.91;46.15;66.86;;
51665;Laerm;37751;52.408;12.536;2024-01-10T07:37:55;60.29;46.03;69.61;;
51665;Laerm;37751;52.408;12.536;2024-01-10T07:40:27;61.30;49.65;68.78;;
51665;Laerm;37751;52.408;12.536;2024-01-10T07:43:06;60.15;47.66;70.60;;
51665;Laerm;37751;52.408;12.536;2024-01-10T07:45:59;60.78;48.45;78.23;;
51665;Laerm;37751;52.408;12.536;2024-01-10T07:48:33;60.80;45.58;68.85;;
51665;Laerm;37751;52.408;12.536;2024-01-10T07:51:09;60.38;46.95;70.21;;
51665;Laerm;37751;52.408;12.536;2024-01-10T07:53:48;62.13;50.26;73.47;;
51665;Laerm;37751;52.408;12.536;2024-01-10T07:56:19;61.35;48.53;74.88;;
51665;Laerm;37751;52.408;12.536;2024-01-10T07:59:04;59.71;47.99;68.82;;
51665;Laerm;37751;52.408;12.536;2024-01-10T08:02:16;68.81;47.27;83.89;;
51665;Laerm;37751;52.408;12.536;2024-01-10T08:04:53;62.10;50.99;76.41;;
51665;Laerm;37751;52.408;12.536;2024-01-10T08:07:27;68.13;49.94;86.63;;
51665;Laerm;37751;52.408;12.536;2024-01-10T08:09:59;61.83;50.34;70.81;;
51665;Laerm;37751;52.408;12.536;2024-01-10T08:12:34;65.01;50.67;77.25;;
51665;Laerm;37751;52.408;12.536;2024-01-10T08:15:15;60.90;48.92;70.49;;
51665;Laerm;37751;52.408;12.536;2024-01-10T08:18:07;59.93;49.29;68.93;;
51665;Laerm;37751;52.408;12.536;2024-01-10T08:20:42;59.55;44.29;71.85;;
51665;Laerm;37751;52.408;12.536;2024-01-10T08:23:16;59.66;46.93;67.78;;
51665;Laerm;37751;52.408;12.536;2024-01-10T08:26:13;60.09;46.00;68.13;;
51665;Laerm;37751;52.408;12.536;2024-01-10T08:28:47;60.94;48.59;69.29;;
51665;Laerm;37751;52.408;12.536;2024-01-10T08:31:21;59.02;45.52;68.40;;
51665;Laerm;37751;52.408;12.536;2024-01-10T08:33:57;61.22;47.14;71.22;;
51665;Laerm;37751;52.408;12.536;2024-01-10T08:36:32;61.58;48.44;76.10;;
51665;Laerm;37751;52.408;12.536;2024-01-10T08:39:19;59.90;47.88;67.63;;
51665;Laerm;37751;52.408;12.536;2024-01-10T08:41:58;58.17;46.09;67.78;;
51665;Laerm;37751;52.408;12.536;2024-01-10T08:44:52;63.01;46.30;75.56;;
51665;Laerm;37751;52.408;12.536;2024-01-10T08:47:27;59.69;44.80;70.56;;
51665;Laerm;37751;52.408;12.536;2024-01-10T08:50:01;59.34;48.18;66.93;;
51665;Laerm;37751;52.408;12.536;2024-01-10T08:53:13;61.11;46.02;71.94;;
51665;Laerm;37751;52.408;12.536;2024-01-10T08:55:58;59.54;47.32;70.14;;
51665;Laerm;37751;52.408;12.536;2024-01-10T08:58:32;58.97;45.61;70.61;;
51665;Laerm;37751;52.408;12.536;2024-01-10T09:01:14;60.19;45.75;68.59;;
51665;Laerm;37751;52.408;12.536;2024-01-10T09:03:46;60.90;49.76;67.61;;
51665;Laerm;37751;52.408;12.536;2024-01-10T09:06:18;59.54;45.12;70.09;;
51665;Laerm;37751;52.408;12.536;2024-01-10T09:08:52;59.40;47.71;67.96;;
51665;Laerm;37751;52.408;12.536;2024-01-10T09:11:27;58.57;48.87;66.52;;
51665;Laerm;37751;52.408;12.536;2024-01-10T09:14:33;59.82;44.92;69.56;;
51665;Laerm;37751;52.408;12.536;2024-01-10T09:17:25;62.22;48.35;73.12;;
51665;Laerm;37751;52.408;12.536;2024-01-10T09:19:59;59.91;46.25;68.66;;
51665;Laerm;37751;52.408;12.536;2024-01-10T09:22:31;59.96;46.03;67.28;;
51665;Laerm;37751;52.408;12.536;2024-01-10T09:25:07;59.81;45.51;68.82;;
51665;Laerm;37751;52.408;12.536;2024-01-10T09:27:45;83.29;46.55;97.89;;
51665;Laerm;37751;52.408;12.536;2024-01-10T09:30:40;59.32;44.25;68.24;;
51665;Laerm;37751;52.408;12.536;2024-01-10T09:33:11;61.12;48.08;70.88;;
51665;Laerm;37751;52.408;12.536;2024-01-10T09:35:57;58.82;44.01;66.80;;
51665;Laerm;37751;52.408;12.536;2024-01-10T09:38:35;62.00;48.04;83.64;;
51665;Laerm;37751;52.408;12.536;2024-01-10T09:41:31;59.93;45.73;66.83;;
51665;Laerm;37751;52.408;12.536;2024-01-10T09:44:06;58.98;43.85;67.04;;
51665;Laerm;37751;52.408;12.536;2024-01-10T09:47:01;59.51;44.05;70.56;;
51665;Laerm;37751;52.408;12.536;2024-01-10T09:49:33;60.26;45.97;72.88;;
51665;Laerm;37751;52.408;12.536;2024-01-10T09:52:10;58.22;45.99;66.80;;
51665;Laerm;37751;52.408;12.536;2024-01-10T09:55:20;58.37;44.12;73.89;;
51665;Laerm;37751;52.408;12.536;2024-01-10T09:58:33;60.29;42.43;77.42;;
51665;Laerm;37751;52.408;12.536;2024-01-10T10:01:34;61.90;45.41;80.07;;
51665;Laerm;37751;52.408;12.536;2024-01-10T10:04:19;59.44;46.06;69.34;;
51665;Laerm;37751;52.408;12.536;2024-01-10T10:07:19;60.10;46.58;71.34;;
51665;Laerm;37751;52.408;12.536;2024-01-10T10:09:56;60.05;47.72;68.06;;
51665;Laerm;37751;52.408;12.536;2024-01-10T10:12:50;59.12;46.76;69.09;;
51665;Laerm;37751;52.408;12.536;2024-01-10T10:15:57;59.58;44.57;69.25;;
51665;Laerm;37751;52.408;12.536;2024-01-10T10:18:55;59.04;44.11;68.57;;
51665;Laerm;37751;52.408;12.536;2024-01-10T10:21:28;59.80;48.67;67.75;;
51665;Laerm;37751;52.408;12.536;2024-01-10T10:24:19;59.57;43.65;70.33;;
51665;Laerm;37751;52.408;12.536;2024-01-10T10:26:59;61.13;45.61;76.18;;
51665;Laerm;37751;52.408;12.536;2024-01-10T10:29:30;60.78;45.40;71.02;;
51665;Laerm;37751;52.408;12.536;2024-01-10T10:32:06;59.30;48.03;75.89;;
51665;Laerm;37751;52.408;12.536;2024-01-10T10:35:04;60.19;46.07;69.21;;
51665;Laerm;37751;52.408;12.536;2024-01-10T10:38:08;60.04;47.22;69.14;;
51665;Laerm;37751;52.408;12.536;2024-01-10T10:41:20;60.81;44.67;76.45;;
51665;Laerm;37751;52.408;12.536;2024-01-10T10:43:57;60.04;45.11;69.70;;
51665;Laerm;37751;52.408;12.536;2024-01-10T10:46:39;60.83;45.18;73.93;;
51665;Laerm;37751;52.408;12.536;2024-01-10T10:49:50;60.39;42.99;68.67;;
51665;Laerm;37751;52.408;12.536;2024-01-10T10:52:34;59.76;43.24;69.23;;
51665;Laerm;37751;52.408;12.536;2024-01-10T10:55:08;59.47;44.91;66.69;;
51665;Laerm;37751;52.408;12.536;2024-01-10T10:58:03;58.63;45.05;68.59;;
51665;Laerm;37751;52.408;12.536;2024-01-10T11:01:04;59.30;47.74;68.85;;
51665;Laerm;37751;52.408;12.536;2024-01-10T11:04:02;59.62;44.84;68.40;;
51665;Laerm;37751;52.408;12.536;2024-01-10T11:06:34;60.64;44.48;72.60;;
51665;Laerm;37751;52.408;12.536;2024-01-10T11:09:38;59.88;46.46;69.84;;
51665;Laerm;37751;52.408;12.536;2024-01-10T11:12:29;61.06;48.81;70.65;;
51665;Laerm;37751;52.408;12.536;2024-01-10T11:15:22;59.39;42.23;66.18;;
51665;Laerm;37751;52.408;12.536;2024-01-10T11:18:37;60.57;47.21;69.08;;
51665;Laerm;37751;52.408;12.536;2024-01-10T11:21:42;59.59;46.46;74.43;;
51665;Laerm;37751;52.408;12.536;2024-01-10T11:24:49;61.22;49.43;76.97;;
51665;Laerm;37751;52.408;12.536;2024-01-10T11:27:22;59.87;47.79;68.55;;
51665;Laerm;37751;52.408;12.536;2024-01-10T11:30:34;61.88;47.89;75.48;;
51665;Laerm;37751;52.408;12.536;2024-01-10T11:33:47;60.69;46.21;71.08;;
51665;Laerm;37751;52.408;12.536;2024-01-10T11:36:20;60.52;46.49;68.54;;
51665;Laerm;37751;52.408;12.536;2024-01-10T11:39:26;60.55;46.20;69.28;;
51665;Laerm;37751;52.408;12.536;2024-01-10T11:42:41;60.39;46.14;72.58;;
51665;Laerm;37751;52.408;12.536;2024-01-10T11:45:36;60.45;48.17;70.42;;
51665;Laerm;37751;52.408;12.536;2024-01-10T11:48:12;60.35;47.61;69.49;;
51665;Laerm;37751;52.408;12.536;2024-01-10T11:51:06;59.11;45.46;69.85;;
51665;Laerm;37751;52.408;12.536;2024-01-10T11:53:42;59.03;45.62;67.59;;
51665;Laerm;37751;52.408;12.536;2024-01-10T11:56:17;60.09;47.74;66.31;;
51665;Laerm;37751;52.408;12.536;2024-01-10T11:59:45;67.41;47.12;86.38;;
51665;Laerm;37751;52.408;12.536;2024-01-10T12:02:37;59.70;47.52;69.80;;
51665;Laerm;37751;52.408;12.536;2024-01-10T12:05:50;62.72;47.64;82.20;;
51665;Laerm;37751;52.408;12.536;2024-01-10T12:09:02;60.93;45.15;71.29;;
51665;Laerm;37751;52.408;12.536;2024-01-10T12:12:08;60.54;46.35;69.05;;
51665;Laerm;37751;52.408;12.536;2024-01-10T12:15:16;60.48;45.73;71.12;;
51665;Laerm;37751;52.408;12.536;2024-01-10T12:18:29;60.71;47.16;70.22;;
51665;Laerm;37751;52.408;12.536;2024-01-10T12:21:03;60.60;45.63;73.23;;
51665;Laerm;37751;52.408;12.536;2024-01-10T12:23:50;62.34;46.97;79.15;;
51665;Laerm;37751;52.408;12.536;2024-01-10T12:26:22;60.97;45.08;74.89;;
51665;Laerm;37751;52.408;12.536;2024-01-10T12:29:17;60.41;44.75;75.26;;
51665;Laerm;37751;52.408;12.536;2024-01-10T12:32:34;60.63;45.66;72.72;;
51665;Laerm;37751;52.408;12.536;2024-01-10T12:35:18;58.61;44.95;67.53;;
51665;Laerm;37751;52.408;12.536;2024-01-10T12:38:14;59.26;48.30;67.74;;
51665;Laerm;37751;52.408;12.536;2024-01-10T12:41:26;60.81;48.98;69.89;;
51665;Laerm;37751;52.408;12.536;2024-01-10T12:44:21;61.16;48.14;76.62;;
51665;Laerm;37751;52.408;12.536;2024-01-10T12:47:03;59.67;46.57;68.19;;
51665;Laerm;37751;52.408;12.536;2024-01-10T12:50:27;59.05;45.68;68.14;;
51665;Laerm;37751;52.408;12.536;2024-01-10T12:56:13;60.62;43.30;75.55;;
51665;Laerm;37751;52.408;12.536;2024-01-10T12:58:45;57.94;44.76;66.41;;
51665;Laerm;37751;52.408;12.536;2024-01-10T13:01:28;61.03;50.13;70.71;;
51665;Laerm;37751;52.408;12.536;2024-01-10T13:04:03;60.30;45.98;69.05;;
51665;Laerm;37751;52.408;12.536;2024-01-10T13:06:56;61.64;47.66;68.48;;
51665;Laerm;37751;52.408;12.536;2024-01-10T13:09:49;61.79;49.97;78.80;;
51665;Laerm;37751;52.408;12.536;2024-01-10T13:12:37;60.96;44.76;70.50;;
51665;Laerm;37751;52.408;12.536;2024-01-10T13:15:11;61.35;48.31;68.57;;
51665;Laerm;37751;52.408;12.536;2024-01-10T13:17:43;69.45;52.95;83.57;;
51665;Laerm;37751;52.408;12.536;2024-01-10T13:20:28;61.33;47.98;71.64;;
51665;Laerm;37751;52.408;12.536;2024-01-10T13:23:23;60.59;45.90;68.73;;
51665;Laerm;37751;52.408;12.536;2024-01-10T13:26:18;60.88;46.56;69.06;;
51665;Laerm;37751;52.408;12.536;2024-01-10T13:29:33;60.11;50.30;68.62;;
51665;Laerm;37751;52.408;12.536;2024-01-10T13:32:47;60.23;45.42;70.02;;
51665;Laerm;37751;52.408;12.536;2024-01-10T13:35:43;60.86;50.41;69.02;;
51665;Laerm;37751;52.408;12.536;2024-01-10T13:38:34;62.44;48.03;72.52;;
51665;Laerm;37751;52.408;12.536;2024-01-10T13:41:16;61.94;49.90;69.65;;
51665;Laerm;37751;52.408;12.536;2024-01-10T13:43:52;60.89;50.81;72.95;;
51665;Laerm;37751;52.408;12.536;2024-01-10T13:46:33;59.66;46.80;70.58;;
51665;Laerm;37751;52.408;12.536;2024-01-10T13:49:16;61.73;48.81;71.26;;
51665;Laerm;37751;52.408;12.536;2024-01-10T13:51:59;68.27;47.77;88.46;;
51665;Laerm;37751;52.408;12.536;2024-01-10T13:55:10;60.94;47.05;70.12;;
51665;Laerm;37751;52.408;12.536;2024-01-10T13:58:04;62.28;48.65;74.55;;
51665;Laerm;37751;52.408;12.536;2024-01-10T14:00:43;60.05;46.87;67.64;;
51665;Laerm;37751;52.408;12.536;2024-01-10T14:03:58;60.00;46.66;67.89;;
51665;Laerm;37751;52.408;12.536;2024-01-10T14:06:52;61.27;46.13;73.82;;
51665;Laerm;37751;52.408;12.536;2024-01-10T14:09:49;61.01;51.53;69.14;;
51665;Laerm;37751;52.408;12.536;2024-01-10T14:12:56;60.72;48.18;72.64;;
51665;Laerm;37751;52.408;12.536;2024-01-10T14:16:01;60.83;49.86;69.21;;
51665;Laerm;37751;52.408;12.536;2024-01-10T14:18:44;60.98;52.81;68.82;;
51665;Laerm;37751;52.408;12.536;2024-01-10T14:21:52;61.21;49.08;71.38;;
51665;Laerm;37751;52.408;12.536;2024-01-10T14:24:35;60.85;48.57;68.59;;
51665;Laerm;37751;52.408;12.536;2024-01-10T14:27:38;62.48;50.51;76.07;;
51665;Laerm;37751;52.408;12.536;2024-01-10T14:30:51;60.52;44.88;70.56;;
51665;Laerm;37751;52.408;12.536;2024-01-10T14:34:00;61.98;49.14;71.05;;
51665;Laerm;37751;52.408;12.536;2024-01-10T14:37:19;61.07;48.74;68.99;;
51665;Laerm;37751;52.408;12.536;2024-01-10T14:40:00;61.83;51.96;72.61;;
51665;Laerm;37751;52.408;12.536;2024-01-10T14:42:34;60.67;48.13;67.32;;
51665;Laerm;37751;52.408;12.536;2024-01-10T14:45:09;60.94;47.92;67.59;;
51665;Laerm;37751;52.408;12.536;2024-01-10T14:47:41;60.68;49.27;66.86;;
51665;Laerm;37751;52.408;12.536;2024-01-10T14:50:16;61.63;47.89;69.64;;
51665;Laerm;37751;52.408;12.536;2024-01-10T14:52:53;60.64;49.54;67.29;;
51665;Laerm;37751;52.408;12.536;2024-01-10T14:55:28;61.80;50.55;72.77;;
51665;Laerm;37751;52.408;12.536;2024-01-10T14:58:19;60.13;49.07;68.81;;
51665;Laerm;37751;52.408;12.536;2024-01-10T15:00:58;60.34;47.13;73.82;;
51665;Laerm;37751;52.408;12.536;2024-01-10T15:03:53;61.33;45.39;68.29;;
51665;Laerm;37751;52.408;12.536;2024-01-10T15:06:25;60.20;48.20;67.50;;
51665;Laerm;37751;52.408;12.536;2024-01-10T15:09:04;61.94;47.68;74.50;;
51665;Laerm;37751;52.408;12.536;2024-01-10T15:11:52;60.88;46.07;66.86;;
51665;Laerm;37751;52.408;12.536;2024-01-10T15:14:47;60.69;43.73;77.62;;
51665;Laerm;37751;52.408;12.536;2024-01-10T15:17:22;60.64;45.90;67.93;;
51665;Laerm;37751;52.408;12.536;2024-01-10T15:19:53;61.54;51.15;78.95;;
51665;Laerm;37751;52.408;12.536;2024-01-10T15:22:25;61.88;49.74;79.60;;
51665;Laerm;37751;52.408;12.536;2024-01-10T15:25:00;61.63;50.69;68.79;;
51665;Laerm;37751;52.408;12.536;2024-01-10T15:27:31;61.10;49.46;69.26;;
51665;Laerm;37751;52.408;12.536;2024-01-10T15:30:06;61.76;45.24;69.81;;
51665;Laerm;37751;52.408;12.536;2024-01-10T15:32:44;60.89;49.30;70.97;;
51665;Laerm;37751;52.408;12.536;2024-01-10T15:35:17;61.83;47.81;70.58;;
51665;Laerm;37751;52.408;12.536;2024-01-10T15:37:48;61.25;48.26;68.61;;
51665;Laerm;37751;52.408;12.536;2024-01-10T15:40:23;79.57;49.08;96.70;;